Time;durP1;ratioP1;P1;durP2;ratioP2;P2;SDS_P1;SDS_P2;PMS_P1;PMS_P2;Temp;Humidity;BMP_temperature;BMP_pressure;BME280_temperature;BME280_humidity;BME280_pressure;Samples;Min_cycle;Max_cycle;Signal;HPM_P1;HPM_P2
2022/11/03 00:01:36;;;;;;;3.90;0.82;;;10.60;99.90;;;;;;5098794;28;20468;-78
2022/11/03 00:04:03;;;;;;;0.00;0.00;;;10.60;99.90;;;;;;5098552;28;20079;-78
2022/11/03 00:06:28;;;;;;;0.20;0.20;;;10.70;99.90;;;;;;5098761;28;20290;-78
2022/11/03 00:08:57;;;;;;;2.47;1.02;;;10.70;99.90;;;;;;5098019;28;20427;-78
2022/11/03 00:11:23;;;;;;;0.00;0.00;;;10.70;99.90;;;;;;5098401;28;20035;-78
2022/11/03 00:13:49;;;;;;;1.38;1.20;;;10.90;99.90;;;;;;5100763;28;20039;-78
2022/11/03 00:16:14;;;;;;;0.80;0.65;;;10.70;99.90;;;;;;5096928;28;20765;-77
2022/11/03 00:18:40;;;;;;;0.03;0.03;;;10.90;99.90;;;;;;5086869;28;20052;-77
2022/11/03 00:21:08;;;;;;;1.00;0.88;;;10.80;99.90;;;;;;5087385;28;20040;-78
2022/11/03 00:23:42;;;;;;;1.17;0.63;;;10.80;99.90;;;;;;5087361;28;20047;-78
2022/11/03 00:26:20;;;;;;;0.03;0.03;;;10.80;99.90;;;;;;5086558;28;20085;-78
2022/11/03 00:28:48;;;;;;;0.95;0.93;;;10.90;99.90;;;;;;5086105;28;20442;-77
2022/11/03 00:31:16;;;;;;;0.35;0.35;;;10.80;99.90;;;;;;5086122;28;20501;-77
2022/11/03 00:33:43;;;;;;;4.38;1.08;;;10.90;99.90;;;;;;5085825;28;20040;-78
2022/11/03 00:36:18;;;;;;;0.35;0.17;;;10.80;95.20;;;;;;5086511;28;20056;-78
2022/11/03 00:38:45;;;;;;;0.00;0.00;;;10.80;99.90;;;;;;5084810;28;20048;-77
2022/11/03 00:41:11;;;;;;;1.10;0.32;;;10.80;99.90;;;;;;5086348;28;20399;-78
2022/11/03 00:43:37;;;;;;;0.20;0.20;;;11.20;99.90;;;;;;5085577;28;20833;-78
2022/11/03 00:46:04;;;;;;;0.00;0.00;;;10.60;99.90;;;;;;5086153;28;20044;-77
2022/11/03 00:48:34;;;;;;;4.28;0.28;;;10.60;99.90;;;;;;5085618;28;20144;-78
2022/11/03 00:51:07;;;;;;;0.38;0.38;;;10.50;99.90;;;;;;5086019;28;20055;-77
2022/11/03 00:53:35;;;;;;;3.85;1.55;;;10.40;99.90;;;;;;5084604;28;20564;-78
2022/11/03 00:56:01;;;;;;;0.28;0.28;;;10.70;99.90;;;;;;5085926;28;20059;-77
2022/11/03 00:58:28;;;;;;;0.00;0.00;;;10.50;99.90;;;;;;5086528;28;20403;-78
2022/11/03 01:01:00;;;;;;;5.38;0.70;;;10.40;99.90;;;;;;5085835;28;20044;-77
2022/11/03 01:03:26;;;;;;;0.10;0.10;;;10.40;99.90;;;;;;5084519;28;20051;-78
2022/11/03 01:08:37;;;;;;;0.08;0.08;;;10.40;99.90;;;;;;5085607;28;20048;-77
2022/11/03 01:14:00;;;;;;;0.28;0.13;;;10.20;1.00;;;;;;5084751;28;20052;-77
2022/11/03 01:16:25;;;;;;;1.17;0.45;;;10.30;1.00;;;;;;5084914;28;20278;-77
2022/11/03 01:18:52;;;;;;;0.20;0.10;;;10.20;1.00;;;;;;5085191;28;20374;-77
2022/11/03 01:21:18;;;;;;;0.10;0.10;;;10.30;1.00;;;;;;5085124;28;20040;-77
2022/11/03 01:23:44;;;;;;;0.20;0.20;;;10.20;1.00;;;;;;5085517;28;20040;-77
2022/11/03 01:26:11;;;;;;;3.40;1.85;;;10.20;2.70;;;;;;5083494;28;20494;-78
2022/11/03 01:28:38;;;;;;;0.20;0.13;;;10.30;1.00;;;;;;5083902;28;20097;-77
2022/11/03 01:31:16;;;;;;;0.40;0.38;;;10.20;1.00;;;;;;5084320;28;20426;-78
2022/11/03 01:33:42;;;;;;;0.10;0.10;;;10.30;1.00;;;;;;5084874;28;20044;-78
2022/11/03 01:36:08;;;;;;;0.00;0.00;;;10.20;64.30;;;;;;5085664;28;20514;-77
2022/11/03 01:38:35;;;;;;;0.20;0.10;;;10.30;29.60;;;;;;5084311;28;20115;-78
2022/11/03 01:41:03;;;;;;;0.00;0.00;;;10.30;51.30;;;;;;5085549;28;20048;-78
2022/11/03 01:43:31;;;;;;;1.25;1.00;;;10.20;97.90;;;;;;5084754;28;20552;-78
2022/11/03 01:46:11;;;;;;;0.45;0.40;;;10.30;91.40;;;;;;5084286;28;20126;-77
2022/11/03 01:48:43;;;;;;;2.13;1.17;;;10.30;76.30;;;;;;5084733;28;20044;-78
2022/11/03 01:51:13;;;;;;;0.17;0.17;;;10.20;99.90;;;;;;5083882;28;20439;-78
2022/11/03 01:53:43;;;;;;;0.55;0.55;;;10.20;99.90;;;;;;5083980;28;20048;-78
2022/11/03 01:56:10;;;;;;;0.17;0.17;;;10.30;96.70;;;;;;5063001;28;20055;-78
2022/11/03 01:58:38;;;;;;;4.30;0.88;;;10.30;99.90;;;;;;5072181;28;20822;-77
2022/11/03 02:01:04;;;;;;;0.73;0.30;;;10.30;99.90;;;;;;5083948;28;20040;-77
2022/11/03 02:03:39;;;;;;;0.20;0.20;;;10.20;99.90;;;;;;5083749;28;20414;-77
2022/11/03 02:06:06;;;;;;;0.13;0.13;;;10.20;99.90;;;;;;5083280;28;20305;-77
2022/11/03 02:08:38;;;;;;;3.67;1.48;;;10.10;99.90;;;;;;5083477;28;20042;-78
2022/11/03 02:12:05;;;;;;;0.00;0.00;;;10.40;99.90;;;;;;5083967;28;20423;-77
2022/11/03 02:13:49;;;;;;;1.13;0.88;;;10.10;99.90;;;;;;5083784;28;20047;-78
2022/11/03 02:16:15;;;;;;;0.30;0.28;;;10.00;99.90;;;;;;5083815;28;20056;-79
2022/11/03 02:18:43;;;;;;;0.28;0.28;;;10.10;99.90;;;;;;5083172;28;20131;-78
2022/11/03 02:21:29;;;;;;;0.00;0.00;;;10.10;1.00;;;;;;5083920;28;20513;-77
2022/11/03 02:24:06;;;;;;;0.00;0.00;;;10.10;99.90;;;;;;5083531;28;20043;-78
2022/11/03 02:26:32;;;;;;;0.10;0.00;;;10.20;99.90;;;;;;5084002;28;20044;-77
2022/11/03 02:28:57;;;;;;;0.47;0.10;;;10.30;99.90;;;;;;5083513;28;20050;-77
2022/11/03 02:31:36;;;;;;;0.63;0.47;;;10.30;99.90;;;;;;5081777;28;20052;-77
2022/11/03 02:34:11;;;;;;;1.20;1.10;;;10.30;99.90;;;;;;5083293;28;20494;-78
2022/11/03 02:36:46;;;;;;;4.57;0.70;;;10.20;99.90;;;;;;5083790;28;20048;-77
2022/11/03 02:39:20;;;;;;;1.17;1.02;;;10.40;99.90;;;;;;5083303;28;20048;-77
2022/11/03 02:41:47;;;;;;;0.35;0.35;;;10.20;99.90;;;;;;5083897;28;20134;-77
2022/11/03 02:44:17;;;;;;;0.00;0.00;;;10.10;99.90;;;;;;5083333;28;20039;-78
2022/11/03 02:46:47;;;;;;;0.00;0.00;;;10.20;1.00;;;;;;5083498;28;20072;-78
2022/11/03 02:49:12;;;;;;;0.00;0.00;;;10.10;1.00;;;;;;5083036;28;20573;-78
2022/11/03 02:51:38;;;;;;;0.00;0.00;;;10.10;1.00;;;;;;5083254;28;20158;-77
2022/11/03 02:54:13;;;;;;;0.08;0.08;;;10.20;1.00;;;;;;5083435;28;20292;-77
2022/11/03 02:56:47;;;;;;;0.08;0.08;;;10.20;1.00;;;;;;5083732;28;20044;-78
2022/11/03 02:59:21;;;;;;;0.30;0.30;;;10.30;1.00;;;;;;5083728;28;20498;-78
2022/11/03 03:01:57;;;;;;;0.05;0.05;;;10.20;1.00;;;;;;5084173;28;20047;-78
2022/11/03 03:04:55;;;;;;;0.00;0.00;;;10.40;99.90;;;;;;5083925;28;20123;-77
2022/11/03 03:07:29;;;;;;;0.00;0.00;;;10.40;99.90;;;;;;5083026;28;20059;-79
2022/11/03 03:10:05;;;;;;;0.00;0.00;;;10.40;99.90;;;;;;5062808;28;20076;-78
2022/11/03 03:12:33;;;;;;;0.22;0.20;;;10.30;99.90;;;;;;5063344;28;20130;-77
2022/11/03 03:15:02;;;;;;;8.70;0.80;;;10.30;1.00;;;;;;5074814;28;20115;-78
2022/11/03 03:17:45;;;;;;;1.00;0.47;;;10.30;1.00;;;;;;5082557;28;20398;-77
2022/11/03 03:20:46;;;;;;;0.00;0.00;;;10.20;1.00;;;;;;5084028;28;20429;-77
2022/11/03 03:23:25;;;;;;;0.00;0.00;;;10.20;10.20;;;;;;5079725;28;20113;-77
2022/11/03 03:25:56;;;;;;;0.15;0.15;;;10.20;51.20;;;;;;5084068;28;20593;-78
2022/11/03 03:28:27;;;;;;;0.00;0.00;;;10.20;92.20;;;;;;5083343;28;20044;-79
2022/11/03 03:30:55;;;;;;;6.13;1.55;;;10.30;80.60;;;;;;5083779;28;20499;-78
2022/11/03 03:33:22;;;;;;;3.25;1.15;;;10.20;99.90;;;;;;5082096;28;20071;-78
2022/11/03 03:35:50;;;;;;;0.10;0.10;;;10.20;99.90;;;;;;5082939;28;20066;-78
2022/11/03 03:38:24;;;;;;;0.20;0.20;;;10.30;46.10;;;;;;5083377;28;20081;-77
2022/11/03 03:40:54;;;;;;;5.28;1.65;;;10.30;98.30;;;;;;5082778;28;20574;-79
2022/11/03 03:43:22;;;;;;;0.38;0.30;;;10.30;79.40;;;;;;5083349;28;20311;-78
2022/11/03 03:45:50;;;;;;;1.25;0.85;;;10.30;99.90;;;;;;5082879;28;20044;-77
2022/11/03 03:48:16;;;;;;;0.28;0.28;;;10.20;99.90;;;;;;5083120;28;20044;-77
2022/11/03 03:50:43;;;;;;;0.47;0.28;;;10.40;99.90;;;;;;5083230;28;20048;-78
2022/11/03 03:53:11;;;;;;;0.15;0.15;;;10.30;99.90;;;;;;5086263;28;20052;-78
2022/11/03 03:55:44;;;;;;;0.25;0.25;;;10.30;99.90;;;;;;5087204;28;20056;-78
2022/11/03 03:58:12;;;;;;;0.50;0.38;;;10.30;99.90;;;;;;5086415;28;20414;-78
2022/11/03 04:00:39;;;;;;;0.03;0.03;;;10.30;99.90;;;;;;5087742;28;20048;-78
2022/11/03 04:03:05;;;;;;;0.00;0.00;;;10.30;99.90;;;;;;5087421;28;20051;-78
2022/11/03 04:05:31;;;;;;;3.55;0.93;;;10.30;99.90;;;;;;5087738;28;20086;-78
2022/11/03 04:07:57;;;;;;;5.95;1.75;;;10.30;99.90;;;;;;5088727;28;20032;-78
2022/11/03 04:10:23;;;;;;;0.20;0.10;;;10.20;99.90;;;;;;5087787;28;20122;-79
2022/11/03 04:23:59;;;;;;;;;;;10.10;99.90;;;;;;5086867;28;20060;-78
2022/11/03 04:26:26;;;;;;;4.47;1.48;;;10.10;99.90;;;;;;5087070;28;20425;-80
2022/11/03 04:28:52;;;;;;;0.88;0.43;;;10.10;99.90;;;;;;5086098;28;20150;-77
2022/11/03 04:31:19;;;;;;;0.20;0.20;;;10.10;99.90;;;;;;5083837;28;20495;-77
2022/11/03 04:33:46;;;;;;;0.17;0.17;;;10.10;99.90;;;;;;5084872;28;20043;-77
2022/11/03 04:36:23;;;;;;;0.40;0.40;;;10.20;99.90;;;;;;5085249;28;20426;-77
2022/11/03 04:38:50;;;;;;;0.35;0.32;;;10.20;99.90;;;;;;5084534;28;20040;-76
2022/11/03 04:41:29;;;;;;;0.65;0.43;;;10.20;99.90;;;;;;5085624;28;20044;-76
2022/11/03 04:43:56;;;;;;;0.00;0.00;;;11.30;99.90;;;;;;5086041;28;20319;-77
2022/11/03 04:46:25;;;;;;;0.05;0.05;;;10.30;99.90;;;;;;5085573;28;20040;-77
2022/11/03 04:48:59;;;;;;;0.00;0.00;;;10.30;99.90;;;;;;5085975;28;20687;-77
2022/11/03 04:51:28;;;;;;;1.10;0.80;;;10.30;99.90;;;;;;5085004;28;20056;-77
2022/11/03 04:54:02;;;;;;;0.35;0.35;;;10.40;99.90;;;;;;5085034;28;20046;-77
2022/11/03 04:56:28;;;;;;;0.57;0.47;;;10.50;99.90;;;;;;5085189;28;20052;-78
2022/11/03 04:58:53;;;;;;;0.08;0.08;;;10.50;99.90;;;;;;5085695;28;20091;-78
2022/11/03 05:01:21;;;;;;;3.72;0.95;;;10.80;99.90;;;;;;5086429;28;20141;-77
2022/11/03 05:03:49;;;;;;;0.20;0.15;;;10.50;99.90;;;;;;5082546;28;20055;-78
2022/11/03 05:06:26;;;;;;;0.47;0.47;;;10.70;67.70;;;;;;5083815;28;20064;-77
2022/11/03 05:08:57;;;;;;;;;;;10.60;31.00;;;;;;5084839;28;20058;-78
2022/11/03 05:11:41;;;;;;;0.15;0.10;;;10.60;1.00;;;;;;5066674;28;19924;-77
2022/11/03 05:14:15;;;;;;;1.55;1.10;;;10.50;91.10;;;;;;5083669;28;20043;-77
2022/11/03 05:16:41;;;;;;;0.00;0.00;;;11.50;1.00;;;;;;5083741;28;20106;-77
2022/11/03 05:19:32;;;;;;;4.28;1.17;;;10.60;17.10;;;;;;5083627;28;20040;-78
2022/11/03 05:22:00;;;;;;;2.08;0.63;;;10.60;48.50;;;;;;5084441;28;20047;-78
2022/11/03 05:24:26;;;;;;;0.00;0.00;;;10.50;99.90;;;;;;5084785;28;20044;-78
2022/11/03 05:26:54;;;;;;;0.55;0.43;;;10.40;99.90;;;;;;5084854;28;20059;-77
2022/11/03 05:29:26;;;;;;;3.55;0.55;;;10.50;99.90;;;;;;5083407;28;20062;-78
2022/11/03 05:31:54;;;;;;;0.00;0.00;;;10.50;74.90;;;;;;5085610;28;20380;-78
2022/11/03 05:34:37;;;;;;;0.00;0.00;;;10.40;99.90;;;;;;5085393;28;20047;-77
2022/11/03 05:37:06;;;;;;;3.10;0.85;;;10.20;99.90;;;;;;5084424;28;20048;-77
2022/11/03 05:39:36;;;;;;;1.73;1.27;;;10.30;99.90;;;;;;5083956;28;20138;-77
2022/11/03 05:42:15;;;;;;;0.00;0.00;;;10.30;99.90;;;;;;5084162;28;20525;-77
2022/11/03 05:44:41;;;;;;;0.28;0.22;;;10.20;99.90;;;;;;5082990;28;20066;-77
2022/11/03 05:47:17;;;;;;;0.28;0.28;;;10.10;99.90;;;;;;5082085;28;20051;-77
2022/11/03 05:49:42;;;;;;;;;;;10.20;99.90;;;;;;5083819;28;20109;-77
2022/11/03 05:52:18;;;;;;;0.00;0.00;;;10.30;99.90;;;;;;5083757;28;19920;-78
2022/11/03 05:54:44;;;;;;;0.65;0.65;;;10.60;99.90;;;;;;5082814;28;20160;-77
2022/11/03 05:57:12;;;;;;;0.22;0.22;;;10.60;99.90;;;;;;5083671;28;20672;-78
2022/11/03 05:59:38;;;;;;;0.00;0.00;;;10.60;99.90;;;;;;5080988;28;20062;-77
2022/11/03 06:02:22;;;;;;;2.80;1.45;;;10.60;99.90;;;;;;5079604;28;20040;-78
2022/11/03 06:04:48;;;;;;;0.30;0.30;;;10.60;99.90;;;;;;5080567;28;20060;-77
2022/11/03 06:07:25;;;;;;;1.23;1.13;;;10.50;99.90;;;;;;5080199;28;20059;-78
2022/11/03 06:09:55;;;;;;;0.35;0.35;;;10.40;99.90;;;;;;5067669;28;20040;-77
2022/11/03 06:12:22;;;;;;;0.00;0.00;;;10.30;99.90;;;;;;5080636;28;20043;-78
2022/11/03 06:14:48;;;;;;;0.15;0.08;;;10.30;99.90;;;;;;5079678;28;20052;-78
2022/11/03 06:17:26;;;;;;;3.15;2.17;;;10.30;99.90;;;;;;5079468;28;20638;-78
2022/11/03 06:19:56;;;;;;;2.63;0.93;;;10.40;99.90;;;;;;5080320;28;20499;-78
2022/11/03 06:22:34;;;;;;;5.82;0.88;;;10.50;99.90;;;;;;5081479;28;20473;-77
2022/11/03 06:25:22;;;;;;;2.47;1.00;;;10.50;99.90;;;;;;5081175;28;20040;-78
2022/11/03 06:27:48;;;;;;;0.03;0.03;;;10.40;99.90;;;;;;5077750;28;20086;-78
2022/11/03 06:30:23;;;;;;;0.00;0.00;;;10.40;99.90;;;;;;5081590;28;20376;-79
2022/11/03 06:32:48;;;;;;;1.33;0.93;;;10.40;99.90;;;;;;5080975;28;20051;-77
2022/11/03 06:35:14;;;;;;;0.15;0.15;;;10.50;99.90;;;;;;5081558;28;20047;-78
2022/11/03 06:37:40;;;;;;;0.73;0.55;;;10.50;99.90;;;;;;5077540;28;20052;-78
2022/11/03 06:40:09;;;;;;;0.00;0.00;;;10.50;99.90;;;;;;5082468;28;20044;-78
2022/11/03 06:42:37;;;;;;;1.13;0.63;;;10.40;99.90;;;;;;5083108;28;20105;-78
2022/11/03 06:45:17;;;;;;;0.20;0.20;;;10.30;99.90;;;;;;5083028;28;20048;-77
2022/11/03 06:47:42;;;;;;;0.15;0.15;;;10.30;99.90;;;;;;5082660;28;20080;-78
2022/11/03 06:50:24;;;;;;;0.38;0.38;;;10.40;99.90;;;;;;5081625;28;20087;-79
2022/11/03 06:52:51;;;;;;;5.63;0.85;;;10.40;99.90;;;;;;5082618;28;20048;-77
2022/11/03 06:55:32;;;;;;;0.93;0.60;;;10.50;99.90;;;;;;5082847;28;20073;-78
2022/11/03 06:58:03;;;;;;;0.10;0.10;;;10.60;99.90;;;;;;5082841;28;20442;-79
2022/11/03 07:00:30;;;;;;;0.00;0.00;;;11.50;74.90;;;;;;5083403;28;20450;-78
2022/11/03 07:02:59;;;;;;;0.00;0.00;;;10.60;96.70;;;;;;5083174;28;20588;-78
2022/11/03 07:05:27;;;;;;;0.00;0.00;;;10.60;99.90;;;;;;5084077;28;20070;-78
2022/11/03 07:07:59;;;;;;;0.20;0.20;;;10.60;99.90;;;;;;5084608;28;20056;-79
2022/11/03 07:10:27;;;;;;;12.85;1.48;;;10.60;99.90;;;;;;5083874;28;20032;-78
2022/11/03 07:12:54;;;;;;;0.40;0.40;;;10.60;99.90;;;;;;5083777;28;20052;-79
2022/11/03 07:15:32;;;;;;;0.22;0.20;;;10.70;99.90;;;;;;5084378;28;20040;-78
2022/11/03 07:18:00;;;;;;;0.55;0.55;;;10.70;99.90;;;;;;5083002;28;20044;-78
2022/11/03 07:20:26;;;;;;;1.45;1.35;;;10.80;99.90;;;;;;5083451;28;20079;-79
2022/11/03 07:22:55;;;;;;;0.30;0.28;;;10.80;99.90;;;;;;5082159;28;20036;-79
2022/11/03 07:25:21;;;;;;;0.63;0.45;;;11.00;28.60;;;;;;5082801;28;20040;-79
2022/11/03 07:27:52;;;;;;;0.20;0.10;;;11.10;1.00;;;;;;5086425;28;20141;-79
2022/11/03 07:30:20;;;;;;;0.63;0.60;;;11.10;1.00;;;;;;5087124;28;20093;-78
2022/11/03 07:32:48;;;;;;;0.28;0.22;;;11.30;1.00;;;;;;5086479;28;20609;-78
2022/11/03 07:35:16;;;;;;;0.80;0.70;;;12.30;1.00;;;;;;5085960;28;20132;-78
2022/11/03 07:37:46;;;;;;;0.00;0.00;;;11.30;1.00;;;;;;5085540;28;20048;-79
2022/11/03 07:40:19;;;;;;;0.00;0.00;;;11.50;99.90;;;;;;5085595;28;20048;-79
2022/11/03 07:42:45;;;;;;;1.08;0.57;;;11.50;1.00;;;;;;5086173;28;20044;-78
2022/11/03 07:45:40;;;;;;;1.55;0.20;;;11.60;1.00;;;;;;5086470;28;20051;-77
2022/11/03 07:48:38;;;;;;;0.05;0.05;;;11.50;1.00;;;;;;5084470;28;20040;-77
2022/11/03 07:51:25;;;;;;;1.65;1.02;;;11.60;1.00;;;;;;5083602;28;20044;-78
2022/11/03 07:54:22;;;;;;;0.13;0.13;;;11.60;1.00;;;;;;5083401;28;20117;-77
2022/11/03 07:56:51;;;;;;;3.40;2.70;;;11.80;1.00;;;;;;5081653;28;20059;-77
2022/11/03 07:59:22;;;;;;;0.90;0.45;;;11.90;99.90;;;;;;5084717;28;20052;-78
2022/11/03 08:01:53;;;;;;;0.10;0.10;;;11.90;99.90;;;;;;5084310;28;20055;-78
2022/11/03 08:04:22;;;;;;;0.20;0.20;;;11.90;1.00;;;;;;5083472;28;20577;-77
2022/11/03 08:06:48;;;;;;;0.25;0.25;;;12.10;99.90;;;;;;5083654;28;20059;-78
2022/11/03 08:09:14;;;;;;;3.42;0.90;;;12.10;99.90;;;;;;5083810;28;20040;-78
2022/11/03 08:11:40;;;;;;;0.00;0.00;;;12.20;99.90;;;;;;5083222;28;20843;-78
2022/11/03 08:14:05;;;;;;;1.45;1.35;;;12.30;99.90;;;;;;5083487;28;20047;-77
2022/11/03 08:16:31;;;;;;;0.57;0.20;;;12.30;99.90;;;;;;5083393;28;20051;-77
2022/11/03 08:18:57;;;;;;;0.00;0.00;;;12.40;99.90;;;;;;5082841;28;20129;-77
2022/11/03 08:21:22;;;;;;;1.73;0.70;;;12.50;99.90;;;;;;5083067;28;20401;-78
2022/11/03 08:23:48;;;;;;;0.22;0.22;;;12.60;99.90;;;;;;5083085;28;20601;-77
2022/11/03 08:26:14;;;;;;;0.22;0.13;;;12.70;99.90;;;;;;5083722;28;20085;-78
2022/11/03 08:28:40;;;;;;;0.00;0.00;;;12.80;97.80;;;;;;5082875;28;20483;-77
2022/11/03 08:31:05;;;;;;;0.00;0.00;;;12.80;99.90;;;;;;5082999;28;20040;-76
2022/11/03 08:33:32;;;;;;;1.02;0.47;;;12.90;43.10;;;;;;5082898;28;20040;-77
2022/11/03 08:35:58;;;;;;;2.05;0.88;;;12.90;90.00;;;;;;5083512;28;20396;-77
2022/11/03 08:38:24;;;;;;;1.95;1.85;;;13.20;20.70;;;;;;5082449;28;20078;-77
2022/11/03 08:40:50;;;;;;;0.43;0.43;;;13.00;2.30;;;;;;5083462;28;20123;-76
2022/11/03 08:43:15;;;;;;;0.57;0.40;;;12.90;99.90;;;;;;5144263;22;20012;-77
2022/11/03 08:45:41;;;;;;;0.28;0.22;;;13.10;99.90;;;;;;5070796;28;20060;-78
2022/11/03 08:48:06;;;;;;;0.25;0.25;;;12.80;99.90;;;;;;5077983;28;20149;-77
2022/11/03 08:50:32;;;;;;;0.10;0.10;;;12.80;99.90;;;;;;5068862;28;20080;-79
2022/11/03 08:52:58;;;;;;;2.28;0.93;;;12.90;99.90;;;;;;5067844;28;20039;-77
2022/11/03 08:55:23;;;;;;;0.68;0.68;;;12.80;99.90;;;;;;5077451;28;20059;-77
2022/11/03 08:57:49;;;;;;;0.35;0.30;;;12.80;99.90;;;;;;5070927;28;20141;-78
2022/11/03 09:00:16;;;;;;;0.00;0.00;;;12.90;99.90;;;;;;5079725;28;20147;-78
2022/11/03 09:02:42;;;;;;;0.00;0.00;;;13.00;99.90;;;;;;5066309;28;20047;-78
2022/11/03 09:05:09;;;;;;;0.13;0.10;;;13.10;99.90;;;;;;5083293;28;20524;-78
2022/11/03 09:07:35;;;;;;;0.08;0.08;;;13.20;99.90;;;;;;5082448;28;20044;-77
2022/11/03 09:10:00;;;;;;;0.32;0.20;;;13.20;99.90;;;;;;5083064;28;20040;-76
2022/11/03 09:12:26;;;;;;;0.43;0.43;;;14.10;99.70;;;;;;5078533;28;20139;-77
2022/11/03 09:14:52;;;;;;;0.13;0.13;;;13.30;46.60;;;;;;5057772;28;20048;-77
2022/11/03 09:17:17;;;;;;;0.03;0.03;;;13.40;1.00;;;;;;5061542;28;20439;-77
2022/11/03 09:19:43;;;;;;;0.45;0.45;;;13.50;1.00;;;;;;5076144;28;20047;-77
2022/11/03 09:22:08;;;;;;;0.30;0.25;;;13.50;1.00;;;;;;5081159;28;20080;-77
2022/11/03 09:24:34;;;;;;;1.77;0.95;;;13.60;1.00;;;;;;5081003;28;20447;-77
2022/11/03 09:27:00;;;;;;;0.00;0.00;;;14.50;99.90;;;;;;5081378;28;20525;-78
2022/11/03 09:29:25;;;;;;;0.38;0.32;;;13.80;99.90;;;;;;5062583;28;20413;-77
2022/11/03 09:31:51;;;;;;;0.47;0.10;;;13.90;99.90;;;;;;5082207;28;20044;-78
2022/11/03 09:34:16;;;;;;;0.77;0.55;;;14.00;99.90;;;;;;5081941;28;20050;-78
2022/11/03 09:36:42;;;;;;;0.08;0.08;;;13.90;99.90;;;;;;5081537;28;20044;-78
2022/11/03 09:39:08;;;;;;;0.00;0.00;;;14.00;99.90;;;;;;5070348;28;20070;-77
2022/11/03 09:41:34;;;;;;;0.03;0.03;;;14.10;99.90;;;;;;5061419;28;20036;-77
2022/11/03 09:44:00;;;;;;;1.15;0.68;;;14.10;99.90;;;;;;5061476;28;20113;-78
2022/11/03 09:46:28;;;;;;;0.57;0.30;;;14.20;99.90;;;;;;5061654;28;20517;-77
2022/11/03 09:48:55;;;;;;;0.17;0.17;;;15.20;99.90;;;;;;5067866;28;20040;-78
2022/11/03 09:51:22;;;;;;;0.85;0.82;;;14.40;99.90;;;;;;5060685;28;20116;-77
2022/11/03 09:53:48;;;;;;;0.60;0.60;;;14.50;99.90;;;;;;5060014;28;20530;-77
2022/11/03 09:56:18;;;;;;;0.52;0.10;;;14.60;99.90;;;;;;5060357;28;20052;-77
2022/11/03 09:58:46;;;;;;;0.00;0.00;;;14.70;99.90;;;;;;5059488;28;20040;-77
2022/11/03 10:01:12;;;;;;;6.03;1.65;;;14.80;99.90;;;;;;5060754;28;20486;-78
2022/11/03 10:03:40;;;;;;;3.40;1.38;;;15.00;1.00;;;;;;5061041;28;20047;-78
2022/11/03 10:06:06;;;;;;;0.98;0.65;;;15.00;1.00;;;;;;5061091;28;20054;-77
2022/11/03 10:08:34;;;;;;;0.25;0.13;;;15.10;1.00;;;;;;5048593;28;20056;-77
2022/11/03 10:11:01;;;;;;;0.00;0.00;;;15.30;1.00;;;;;;5080522;28;20126;-78
2022/11/03 10:13:34;;;;;;;0.00;0.00;;;15.40;99.90;;;;;;5081519;28;20424;-78
2022/11/03 10:16:04;;;;;;;0.00;0.00;;;15.40;99.90;;;;;;5081314;28;20051;-78
2022/11/03 10:18:30;;;;;;;0.00;0.00;;;15.60;99.90;;;;;;5075779;28;20049;-77
2022/11/03 10:21:00;;;;;;;0.10;0.10;;;15.50;99.90;;;;;;5060383;28;20048;-77
2022/11/03 10:23:26;;;;;;;1.08;0.65;;;15.40;99.90;;;;;;5060388;28;20514;-78
2022/11/03 10:25:51;;;;;;;0.00;0.00;;;15.30;99.90;;;;;;5060117;28;20086;-77
2022/11/03 10:28:25;;;;;;;2.63;0.90;;;15.30;99.90;;;;;;5064513;28;20185;-78
2022/11/03 10:31:01;;;;;;;1.15;0.15;;;15.20;99.90;;;;;;5081779;28;20084;-77
2022/11/03 10:33:35;;;;;;;0.20;0.20;;;15.30;99.90;;;;;;5080903;28;20056;-78
2022/11/03 10:36:24;;;;;;;0.20;0.20;;;15.50;99.90;;;;;;5081601;28;20339;-78
2022/11/03 10:38:51;;;;;;;0.85;0.50;;;15.60;99.90;;;;;;5059871;28;20052;-77
2022/11/03 10:41:26;;;;;;;1.30;0.82;;;15.90;99.90;;;;;;5060642;28;20044;-78
2022/11/03 10:43:59;;;;;;;0.20;0.10;;;16.20;99.90;;;;;;5060524;28;20098;-77
2022/11/03 10:46:25;;;;;;;0.10;0.10;;;16.50;1.00;;;;;;5043327;28;20059;-79
2022/11/03 10:49:12;;;;;;;1.50;0.30;;;16.60;1.00;;;;;;5061279;28;20414;-78
2022/11/03 10:51:39;;;;;;;0.52;0.35;;;16.70;1.00;;;;;;5062300;28;20181;-78
2022/11/03 10:54:10;;;;;;;0.25;0.25;;;16.60;99.90;;;;;;5061331;28;20071;-79
2022/11/03 10:56:35;;;;;;;2.67;0.95;;;16.70;99.90;;;;;;5061704;28;20070;-78
2022/11/03 10:59:02;;;;;;;0.65;0.65;;;16.50;99.90;;;;;;5043526;28;20045;-78
2022/11/03 11:01:27;;;;;;;2.92;0.70;;;16.50;99.90;;;;;;5061370;28;20061;-78
2022/11/03 11:03:54;;;;;;;0.38;0.30;;;16.40;99.90;;;;;;5061573;28;20123;-77
2022/11/03 11:06:25;;;;;;;0.10;0.10;;;16.40;99.90;;;;;;5062631;28;20349;-78
2022/11/03 11:08:53;;;;;;;0.20;0.20;;;16.60;99.90;;;;;;5061237;28;20048;-78
2022/11/03 11:11:21;;;;;;;0.63;0.38;;;16.70;99.90;;;;;;5062552;28;20126;-77
2022/11/03 11:14:23;;;;;;;0.00;0.00;;;16.60;99.90;;;;;;5062590;28;20106;-79
2022/11/03 11:16:55;;;;;;;2.05;1.02;;;16.60;99.90;;;;;;5062374;28;20048;-79
2022/11/03 11:19:22;;;;;;;0.98;0.73;;;16.70;99.90;;;;;;5074289;28;20087;-78
2022/11/03 11:21:49;;;;;;;1.10;0.98;;;16.80;99.90;;;;;;5081399;28;20124;-78
2022/11/03 11:24:41;;;;;;;1.02;0.43;;;17.00;99.90;;;;;;5081453;28;20043;-78
2022/11/03 11:27:31;;;;;;;0.68;0.15;;;17.10;99.90;;;;;;5082501;28;20119;-78
2022/11/03 11:30:03;;;;;;;0.15;0.15;;;17.20;99.90;;;;;;5064775;28;20053;-77
2022/11/03 11:32:38;;;;;;;0.80;0.57;;;17.40;99.90;;;;;;5062302;28;20059;-78
2022/11/03 11:35:08;;;;;;;0.30;0.30;;;17.40;96.00;;;;;;5060895;28;20090;-78
2022/11/03 11:37:36;;;;;;;0.00;0.00;;;17.30;50.70;;;;;;5061788;28;20410;-78
2022/11/03 11:40:11;;;;;;;1.30;0.90;;;17.20;26.20;;;;;;5062564;28;20037;-78
2022/11/03 11:42:59;;;;;;;0.43;0.30;;;17.20;27.50;;;;;;5063576;28;20071;-78
2022/11/03 11:46:03;;;;;;;0.00;0.00;;;17.10;5.40;;;;;;5063632;28;20048;-79
2022/11/03 11:48:28;;;;;;;0.00;0.00;;;16.90;46.60;;;;;;5063123;28;20048;-78
2022/11/03 11:50:57;;;;;;;0.00;0.00;;;17.10;6.20;;;;;;5067573;28;20548;-78
2022/11/03 11:53:24;;;;;;;4.75;1.23;;;17.10;30.70;;;;;;5064464;28;20063;-79
2022/11/03 11:55:58;;;;;;;0.30;0.30;;;17.30;1.00;;;;;;5063210;28;20626;-78
2022/11/03 11:58:44;;;;;;;0.10;0.10;;;17.10;1.00;;;;;;5065636;28;20040;-79
2022/11/03 12:01:20;;;;;;;;;;;17.30;1.00;;;;;;5083129;28;20705;-79
2022/11/03 12:03:47;;;;;;;0.00;0.00;;;17.00;1.00;;;;;;5083777;28;19950;-79
2022/11/03 12:06:12;;;;;;;0.00;0.00;;;16.90;1.00;;;;;;5082956;28;20048;-77
2022/11/03 12:08:38;;;;;;;0.95;0.90;;;16.80;1.00;;;;;;5081212;28;20055;-79
2022/11/03 12:11:05;;;;;;;0.00;0.00;;;16.70;1.00;;;;;;5084349;28;20091;-79
2022/11/03 12:13:46;;;;;;;0.00;0.00;;;16.70;1.00;;;;;;5086410;28;20047;-79
2022/11/03 12:16:31;;;;;;;0.47;0.20;;;16.70;1.00;;;;;;5087108;28;20131;-78
2022/11/03 12:19:17;;;;;;;0.00;0.00;;;16.60;1.00;;;;;;5086612;28;20075;-78
2022/11/03 12:21:48;;;;;;;3.30;0.93;;;16.60;1.00;;;;;;5086388;28;20391;-79
2022/11/03 12:24:31;;;;;;;0.20;0.13;;;16.80;1.00;;;;;;5085352;28;20048;-78
2022/11/03 12:26:57;;;;;;;0.20;0.13;;;16.40;99.90;;;;;;5085129;28;20590;-77
2022/11/03 12:29:23;;;;;;;0.20;0.20;;;16.50;1.00;;;;;;5086667;28;20059;-79
2022/11/03 12:31:50;;;;;;;0.45;0.35;;;16.50;1.00;;;;;;5086485;28;20047;-79
2022/11/03 12:34:16;;;;;;;0.20;0.20;;;16.30;99.90;;;;;;5084015;28;20990;-79
2022/11/03 12:36:42;;;;;;;3.83;1.55;;;16.40;99.90;;;;;;5071807;28;20554;-79
2022/11/03 12:39:08;;;;;;;1.08;0.43;;;16.20;1.00;;;;;;5064952;28;20091;-78
2022/11/03 12:41:33;;;;;;;34.35;0.90;;;16.30;1.00;;;;;;5064860;28;20577;-79
2022/11/03 12:43:59;;;;;;;0.43;0.35;;;16.20;99.90;;;;;;5081117;28;20178;-79
2022/11/03 12:46:25;;;;;;;0.05;0.05;;;16.00;1.00;;;;;;5085037;28;20139;-79
2022/11/03 12:48:51;;;;;;;0.22;0.17;;;16.00;1.00;;;;;;5084415;28;20045;-78
2022/11/03 12:51:22;;;;;;;0.00;0.00;;;16.20;99.90;;;;;;5084380;28;20075;-79
2022/11/03 12:53:47;;;;;;;0.10;0.10;;;16.20;99.90;;;;;;5084588;28;20413;-79
2022/11/03 12:56:14;;;;;;;0.10;0.03;;;16.00;99.90;;;;;;5083255;28;20052;-79
2022/11/03 12:58:40;;;;;;;1.15;0.65;;;15.70;99.90;;;;;;5084657;28;20928;-79
2022/11/03 13:01:06;;;;;;;0.00;0.00;;;16.00;99.90;;;;;;5049579;28;20590;-79
2022/11/03 13:03:33;;;;;;;0.20;0.20;;;16.10;99.90;;;;;;5081111;28;20051;-78
2022/11/03 13:05:59;;;;;;;0.00;0.00;;;16.30;99.90;;;;;;5067265;28;20385;-79
2022/11/03 13:08:26;;;;;;;0.32;0.10;;;16.70;99.90;;;;;;5086034;28;20048;-80
2022/11/03 13:10:52;;;;;;;2.40;1.27;;;17.00;99.90;;;;;;5086869;28;20123;-78
2022/11/03 13:13:18;;;;;;;0.05;0.05;;;17.00;99.90;;;;;;5084824;28;20941;-79
2022/11/03 13:15:44;;;;;;;0.00;0.00;;;17.20;99.90;;;;;;5084013;28;20048;-78
2022/11/03 13:18:10;;;;;;;1.17;0.22;;;17.30;99.90;;;;;;5085168;28;20599;-78
2022/11/03 13:20:36;;;;;;;0.10;0.10;;;17.40;99.90;;;;;;5084154;28;20170;-78
2022/11/03 13:23:02;;;;;;;1.23;0.50;;;17.50;99.90;;;;;;5084687;28;20155;-79